sensor_id;sensor_type;location;lat;lon;timestamp;P1;durP1;ratioP1;P2;durP2;ratioP2
45476;SDS011;31958;51.756;-2.556;2022-10-16T00:00:38;2.90;;;1.00;;
45476;SDS011;31958;51.756;-2.556;2022-10-16T00:03:05;2.85;;;1.02;;
45476;SDS011;31958;51.756;-2.556;2022-10-16T00:05:31;4.35;;;1.10;;
45476;SDS011;31958;51.756;-2.556;2022-10-16T00:07:56;3.47;;;1.10;;
45476;SDS011;31958;51.756;-2.556;2022-10-16T00:10:22;2.80;;;1.10;;
45476;SDS011;31958;51.756;-2.556;2022-10-16T00:12:48;2.75;;;0.90;;
45476;SDS011;31958;51.756;-2.556;2022-10-16T00:15:13;2.97;;;1.00;;
45476;SDS011;31958;51.756;-2.556;2022-10-16T00:17:39;2.45;;;1.10;;
45476;SDS011;31958;51.756;-2.556;2022-10-16T00:20:04;3.28;;;1.35;;
45476;SDS011;31958;51.756;-2.556;2022-10-16T00:22:30;2.83;;;1.00;;
45476;SDS011;31958;51.756;-2.556;2022-10-16T00:24:55;3.30;;;1.33;;
45476;SDS011;31958;51.756;-2.556;2022-10-16T00:27:21;2.47;;;1.08;;
45476;SDS011;31958;51.756;-2.556;2022-10-16T00:29:50;2.80;;;0.90;;
45476;SDS011;31958;51.756;-2.556;2022-10-16T00:32:16;3.33;;;0.90;;
45476;SDS011;31958;51.756;-2.556;2022-10-16T00:34:42;2.47;;;0.90;;
45476;SDS011;31958;51.756;-2.556;2022-10-16T00:37:08;2.67;;;1.08;;
45476;SDS011;31958;51.756;-2.556;2022-10-16T00:39:33;3.42;;;1.13;;
45476;SDS011;31958;51.756;-2.556;2022-10-16T00:41:59;4.07;;;1.10;;
45476;SDS011;31958;51.756;-2.556;2022-10-16T00:47:13;2.53;;;0.75;;
45476;SDS011;31958;51.756;-2.556;2022-10-16T00:49:42;5.13;;;1.30;;
45476;SDS011;31958;51.756;-2.556;2022-10-16T00:52:08;4.47;;;1.20;;
45476;SDS011;31958;51.756;-2.556;2022-10-16T00:54:33;3.78;;;1.00;;
45476;SDS011;31958;51.756;-2.556;2022-10-16T00:57:00;3.28;;;1.20;;
45476;SDS011;31958;51.756;-2.556;2022-10-16T00:59:31;3.67;;;0.90;;
45476;SDS011;31958;51.756;-2.556;2022-10-16T01:01:59;2.00;;;1.00;;
45476;SDS011;31958;51.756;-2.556;2022-10-16T01:04:25;2.83;;;0.98;;
45476;SDS011;31958;51.756;-2.556;2022-10-16T01:06:57;4.63;;;1.10;;
45476;SDS011;31958;51.756;-2.556;2022-10-16T01:12:10;2.38;;;0.80;;
45476;SDS011;31958;51.756;-2.556;2022-10-16T01:14:47;2.78;;;1.05;;
45476;SDS011;31958;51.756;-2.556;2022-10-16T01:17:17;2.20;;;0.88;;
45476;SDS011;31958;51.756;-2.556;2022-10-16T01:20:05;3.90;;;0.93;;
45476;SDS011;31958;51.756;-2.556;2022-10-16T01:25:05;2.10;;;0.77;;
45476;SDS011;31958;51.756;-2.556;2022-10-16T01:27:34;4.00;;;1.17;;
45476;SDS011;31958;51.756;-2.556;2022-10-16T01:35:18;2.53;;;0.70;;
45476;SDS011;31958;51.756;-2.556;2022-10-16T01:40:26;1.80;;;0.70;;
45476;SDS011;31958;51.756;-2.556;2022-10-16T01:42:55;2.25;;;1.08;;
45476;SDS011;31958;51.756;-2.556;2022-10-16T01:45:25;1.95;;;0.60;;
45476;SDS011;31958;51.756;-2.556;2022-10-16T01:47:52;2.97;;;1.05;;
45476;SDS011;31958;51.756;-2.556;2022-10-16T01:50:18;2.67;;;0.98;;
45476;SDS011;31958;51.756;-2.556;2022-10-16T01:52:45;1.73;;;0.73;;
45476;SDS011;31958;51.756;-2.556;2022-10-16T01:55:13;2.88;;;1.00;;
45476;SDS011;31958;51.756;-2.556;2022-10-16T01:57:41;2.13;;;0.70;;
45476;SDS011;31958;51.756;-2.556;2022-10-16T02:00:10;2.10;;;0.60;;
45476;SDS011;31958;51.756;-2.556;2022-10-16T02:02:38;2.83;;;0.85;;
45476;SDS011;31958;51.756;-2.556;2022-10-16T02:05:51;2.97;;;0.90;;
45476;SDS011;31958;51.756;-2.556;2022-10-16T02:07:56;3.25;;;1.10;;
45476;SDS011;31958;51.756;-2.556;2022-10-16T02:10:21;2.40;;;0.88;;
45476;SDS011;31958;51.756;-2.556;2022-10-16T02:12:50;3.28;;;0.90;;
45476;SDS011;31958;51.756;-2.556;2022-10-16T02:15:20;1.95;;;0.80;;
45476;SDS011;31958;51.756;-2.556;2022-10-16T02:17:45;2.80;;;1.00;;
45476;SDS011;31958;51.756;-2.556;2022-10-16T02:20:10;2.28;;;0.85;;
45476;SDS011;31958;51.756;-2.556;2022-10-16T02:22:38;2.28;;;0.70;;
45476;SDS011;31958;51.756;-2.556;2022-10-16T02:25:25;1.52;;;0.70;;
45476;SDS011;31958;51.756;-2.556;2022-10-16T02:28:02;3.03;;;0.90;;
45476;SDS011;31958;51.756;-2.556;2022-10-16T02:33:02;2.65;;;0.80;;
45476;SDS011;31958;51.756;-2.556;2022-10-16T02:35:29;2.50;;;0.95;;
45476;SDS011;31958;51.756;-2.556;2022-10-16T02:37:56;2.00;;;0.70;;
45476;SDS011;31958;51.756;-2.556;2022-10-16T02:40:22;2.70;;;0.98;;
45476;SDS011;31958;51.756;-2.556;2022-10-16T02:42:50;2.25;;;0.70;;
45476;SDS011;31958;51.756;-2.556;2022-10-16T02:45:17;2.28;;;0.70;;
45476;SDS011;31958;51.756;-2.556;2022-10-16T02:47:43;1.98;;;0.85;;
45476;SDS011;31958;51.756;-2.556;2022-10-16T02:50:09;1.70;;;0.80;;
45476;SDS011;31958;51.756;-2.556;2022-10-16T02:52:34;2.08;;;0.80;;
45476;SDS011;31958;51.756;-2.556;2022-10-16T02:55:00;1.92;;;0.73;;
45476;SDS011;31958;51.756;-2.556;2022-10-16T02:57:25;2.25;;;0.70;;
45476;SDS011;31958;51.756;-2.556;2022-10-16T02:59:50;1.65;;;0.68;;
45476;SDS011;31958;51.756;-2.556;2022-10-16T03:02:16;2.58;;;0.88;;
45476;SDS011;31958;51.756;-2.556;2022-10-16T03:04:41;2.38;;;0.85;;
45476;SDS011;31958;51.756;-2.556;2022-10-16T03:07:07;1.92;;;0.70;;
45476;SDS011;31958;51.756;-2.556;2022-10-16T03:09:32;2.15;;;0.70;;
45476;SDS011;31958;51.756;-2.556;2022-10-16T03:11:58;2.92;;;0.80;;
45476;SDS011;31958;51.756;-2.556;2022-10-16T03:14:23;2.95;;;0.90;;
45476;SDS011;31958;51.756;-2.556;2022-10-16T03:16:49;2.20;;;0.70;;
45476;SDS011;31958;51.756;-2.556;2022-10-16T03:19:15;2.65;;;0.80;;
45476;SDS011;31958;51.756;-2.556;2022-10-16T03:21:41;1.33;;;0.63;;
45476;SDS011;31958;51.756;-2.556;2022-10-16T03:24:07;2.22;;;0.70;;
45476;SDS011;31958;51.756;-2.556;2022-10-16T03:26:32;2.10;;;0.77;;
45476;SDS011;31958;51.756;-2.556;2022-10-16T03:28:57;1.90;;;0.73;;
45476;SDS011;31958;51.756;-2.556;2022-10-16T03:31:23;2.03;;;0.70;;
45476;SDS011;31958;51.756;-2.556;2022-10-16T03:33:48;3.08;;;0.80;;
45476;SDS011;31958;51.756;-2.556;2022-10-16T03:36:14;2.55;;;0.82;;
45476;SDS011;31958;51.756;-2.556;2022-10-16T03:38:39;1.88;;;0.70;;
45476;SDS011;31958;51.756;-2.556;2022-10-16T03:41:04;2.00;;;0.80;;
45476;SDS011;31958;51.756;-2.556;2022-10-16T03:43:30;1.88;;;0.85;;
45476;SDS011;31958;51.756;-2.556;2022-10-16T03:45:55;2.50;;;1.00;;
45476;SDS011;31958;51.756;-2.556;2022-10-16T03:48:21;2.22;;;1.00;;
45476;SDS011;31958;51.756;-2.556;2022-10-16T03:50:46;3.67;;;0.80;;
45476;SDS011;31958;51.756;-2.556;2022-10-16T03:53:13;2.40;;;0.80;;
45476;SDS011;31958;51.756;-2.556;2022-10-16T03:55:41;2.17;;;0.75;;
45476;SDS011;31958;51.756;-2.556;2022-10-16T03:58:07;2.10;;;0.85;;
45476;SDS011;31958;51.756;-2.556;2022-10-16T04:00:32;2.75;;;0.80;;
45476;SDS011;31958;51.756;-2.556;2022-10-16T04:02:57;3.03;;;1.10;;
45476;SDS011;31958;51.756;-2.556;2022-10-16T04:05:23;1.88;;;0.80;;
45476;SDS011;31958;51.756;-2.556;2022-10-16T04:07:49;2.78;;;0.68;;
45476;SDS011;31958;51.756;-2.556;2022-10-16T04:10:14;1.80;;;0.70;;
45476;SDS011;31958;51.756;-2.556;2022-10-16T04:12:39;3.03;;;1.05;;
45476;SDS011;31958;51.756;-2.556;2022-10-16T04:15:05;2.45;;;0.95;;
45476;SDS011;31958;51.756;-2.556;2022-10-16T04:17:30;3.17;;;0.82;;
45476;SDS011;31958;51.756;-2.556;2022-10-16T04:19:56;1.63;;;0.70;;
45476;SDS011;31958;51.756;-2.556;2022-10-16T04:22:21;1.83;;;0.60;;
45476;SDS011;31958;51.756;-2.556;2022-10-16T04:24:46;2.25;;;0.70;;
45476;SDS011;31958;51.756;-2.556;2022-10-16T04:27:12;1.42;;;0.70;;
45476;SDS011;31958;51.756;-2.556;2022-10-16T04:29:37;1.40;;;0.70;;
45476;SDS011;31958;51.756;-2.556;2022-10-16T04:32:03;1.95;;;0.77;;
45476;SDS011;31958;51.756;-2.556;2022-10-16T04:34:28;1.65;;;0.70;;
45476;SDS011;31958;51.756;-2.556;2022-10-16T04:36:53;1.48;;;0.63;;
45476;SDS011;31958;51.756;-2.556;2022-10-16T04:39:19;1.70;;;0.77;;
45476;SDS011;31958;51.756;-2.556;2022-10-16T04:41:44;2.13;;;0.85;;
45476;SDS011;31958;51.756;-2.556;2022-10-16T04:44:09;2.47;;;0.75;;
45476;SDS011;31958;51.756;-2.556;2022-10-16T04:46:35;2.17;;;1.05;;
45476;SDS011;31958;51.756;-2.556;2022-10-16T04:49:00;1.33;;;0.57;;
45476;SDS011;31958;51.756;-2.556;2022-10-16T04:51:26;1.38;;;0.60;;
45476;SDS011;31958;51.756;-2.556;2022-10-16T04:53:52;1.92;;;0.73;;
45476;SDS011;31958;51.756;-2.556;2022-10-16T04:56:18;1.15;;;0.60;;
45476;SDS011;31958;51.756;-2.556;2022-10-16T04:58:43;2.85;;;0.90;;
45476;SDS011;31958;51.756;-2.556;2022-10-16T05:01:08;1.42;;;0.63;;
45476;SDS011;31958;51.756;-2.556;2022-10-16T05:03:34;1.70;;;0.68;;
45476;SDS011;31958;51.756;-2.556;2022-10-16T05:05:59;2.13;;;0.70;;
45476;SDS011;31958;51.756;-2.556;2022-10-16T05:08:25;1.73;;;0.70;;
45476;SDS011;31958;51.756;-2.556;2022-10-16T05:10:50;2.30;;;0.70;;
45476;SDS011;31958;51.756;-2.556;2022-10-16T05:13:16;2.28;;;0.70;;
45476;SDS011;31958;51.756;-2.556;2022-10-16T05:15:41;1.92;;;0.70;;
45476;SDS011;31958;51.756;-2.556;2022-10-16T05:18:12;1.50;;;0.70;;
45476;SDS011;31958;51.756;-2.556;2022-10-16T05:20:37;2.58;;;0.80;;
45476;SDS011;31958;51.756;-2.556;2022-10-16T05:23:02;1.73;;;0.70;;
45476;SDS011;31958;51.756;-2.556;2022-10-16T05:25:28;1.77;;;0.70;;
45476;SDS011;31958;51.756;-2.556;2022-10-16T05:27:53;1.73;;;0.80;;
45476;SDS011;31958;51.756;-2.556;2022-10-16T05:30:19;1.90;;;0.70;;
45476;SDS011;31958;51.756;-2.556;2022-10-16T05:32:49;1.73;;;0.60;;
45476;SDS011;31958;51.756;-2.556;2022-10-16T05:35:16;1.25;;;0.60;;
45476;SDS011;31958;51.756;-2.556;2022-10-16T05:37:42;1.70;;;0.70;;
45476;SDS011;31958;51.756;-2.556;2022-10-16T05:40:08;1.63;;;0.77;;
45476;SDS011;31958;51.756;-2.556;2022-10-16T05:42:34;1.85;;;0.70;;
45476;SDS011;31958;51.756;-2.556;2022-10-16T05:44:59;1.15;;;0.55;;
45476;SDS011;31958;51.756;-2.556;2022-10-16T05:47:25;4.38;;;0.70;;
45476;SDS011;31958;51.756;-2.556;2022-10-16T05:49:50;1.95;;;0.80;;
45476;SDS011;31958;51.756;-2.556;2022-10-16T05:52:15;1.70;;;0.63;;
45476;SDS011;31958;51.756;-2.556;2022-10-16T05:54:41;1.13;;;0.50;;
45476;SDS011;31958;51.756;-2.556;2022-10-16T05:57:06;1.75;;;0.60;;
45476;SDS011;31958;51.756;-2.556;2022-10-16T05:59:32;1.08;;;0.50;;
45476;SDS011;31958;51.756;-2.556;2022-10-16T06:01:57;1.95;;;0.80;;
45476;SDS011;31958;51.756;-2.556;2022-10-16T06:04:23;1.48;;;0.55;;
45476;SDS011;31958;51.756;-2.556;2022-10-16T06:06:48;1.63;;;0.50;;
45476;SDS011;31958;51.756;-2.556;2022-10-16T06:09:14;1.92;;;0.60;;
45476;SDS011;31958;51.756;-2.556;2022-10-16T06:11:39;2.00;;;0.60;;
45476;SDS011;31958;51.756;-2.556;2022-10-16T06:14:05;1.73;;;0.70;;
45476;SDS011;31958;51.756;-2.556;2022-10-16T06:16:34;1.42;;;0.70;;
45476;SDS011;31958;51.756;-2.556;2022-10-16T06:19:01;1.35;;;0.70;;
45476;SDS011;31958;51.756;-2.556;2022-10-16T06:21:27;0.80;;;0.50;;
45476;SDS011;31958;51.756;-2.556;2022-10-16T06:23:56;1.30;;;0.60;;
45476;SDS011;31958;51.756;-2.556;2022-10-16T06:26:23;1.30;;;0.50;;
45476;SDS011;31958;51.756;-2.556;2022-10-16T06:28:50;0.43;;;0.40;;
45476;SDS011;31958;51.756;-2.556;2022-10-16T06:31:16;1.05;;;0.38;;
45476;SDS011;31958;51.756;-2.556;2022-10-16T06:33:42;1.85;;;0.60;;
45476;SDS011;31958;51.756;-2.556;2022-10-16T06:36:11;1.55;;;0.60;;
45476;SDS011;31958;51.756;-2.556;2022-10-16T06:38:38;1.42;;;0.65;;
45476;SDS011;31958;51.756;-2.556;2022-10-16T06:41:04;1.38;;;0.60;;
45476;SDS011;31958;51.756;-2.556;2022-10-16T06:43:30;1.80;;;0.73;;
45476;SDS011;31958;51.756;-2.556;2022-10-16T06:46:02;1.27;;;0.60;;
45476;SDS011;31958;51.756;-2.556;2022-10-16T06:48:29;1.35;;;0.60;;
45476;SDS011;31958;51.756;-2.556;2022-10-16T06:51:16;1.83;;;0.70;;
45476;SDS011;31958;51.756;-2.556;2022-10-16T06:53:43;2.13;;;0.90;;
45476;SDS011;31958;51.756;-2.556;2022-10-16T06:56:13;1.15;;;0.60;;
45476;SDS011;31958;51.756;-2.556;2022-10-16T06:58:46;1.38;;;0.73;;
45476;SDS011;31958;51.756;-2.556;2022-10-16T07:01:12;2.85;;;1.05;;
45476;SDS011;31958;51.756;-2.556;2022-10-16T07:03:38;1.58;;;0.80;;
45476;SDS011;31958;51.756;-2.556;2022-10-16T07:06:06;2.50;;;0.90;;
45476;SDS011;31958;51.756;-2.556;2022-10-16T07:08:35;3.58;;;1.40;;
45476;SDS011;31958;51.756;-2.556;2022-10-16T07:11:02;1.95;;;0.95;;
45476;SDS011;31958;51.756;-2.556;2022-10-16T07:13:29;2.28;;;0.85;;
45476;SDS011;31958;51.756;-2.556;2022-10-16T07:15:55;2.00;;;0.95;;
45476;SDS011;31958;51.756;-2.556;2022-10-16T07:18:20;2.20;;;0.88;;
45476;SDS011;31958;51.756;-2.556;2022-10-16T07:20:46;1.88;;;0.82;;
45476;SDS011;31958;51.756;-2.556;2022-10-16T07:23:12;1.30;;;0.63;;
45476;SDS011;31958;51.756;-2.556;2022-10-16T07:25:37;1.70;;;0.90;;
45476;SDS011;31958;51.756;-2.556;2022-10-16T07:28:03;2.03;;;0.80;;
45476;SDS011;31958;51.756;-2.556;2022-10-16T07:30:28;2.20;;;0.90;;
45476;SDS011;31958;51.756;-2.556;2022-10-16T07:32:53;1.55;;;0.82;;
45476;SDS011;31958;51.756;-2.556;2022-10-16T07:35:19;1.75;;;0.80;;
45476;SDS011;31958;51.756;-2.556;2022-10-16T07:37:45;2.72;;;0.82;;
45476;SDS011;31958;51.756;-2.556;2022-10-16T07:40:11;1.50;;;0.70;;
45476;SDS011;31958;51.756;-2.556;2022-10-16T07:42:36;0.95;;;0.60;;
45476;SDS011;31958;51.756;-2.556;2022-10-16T07:45:02;2.17;;;1.00;;
45476;SDS011;31958;51.756;-2.556;2022-10-16T07:47:27;2.70;;;0.85;;
45476;SDS011;31958;51.756;-2.556;2022-10-16T07:49:53;2.88;;;0.80;;
45476;SDS011;31958;51.756;-2.556;2022-10-16T07:52:18;11.00;;;1.45;;
45476;SDS011;31958;51.756;-2.556;2022-10-16T07:54:44;4.18;;;0.95;;
45476;SDS011;31958;51.756;-2.556;2022-10-16T07:57:09;4.97;;;0.88;;
45476;SDS011;31958;51.756;-2.556;2022-10-16T07:59:34;8.18;;;1.25;;
45476;SDS011;31958;51.756;-2.556;2022-10-16T08:02:00;4.07;;;0.90;;
45476;SDS011;31958;51.756;-2.556;2022-10-16T08:04:25;8.32;;;1.00;;
45476;SDS011;31958;51.756;-2.556;2022-10-16T08:06:51;1.83;;;0.90;;
45476;SDS011;31958;51.756;-2.556;2022-10-16T08:09:16;4.82;;;1.13;;
45476;SDS011;31958;51.756;-2.556;2022-10-16T08:11:41;3.65;;;0.90;;
45476;SDS011;31958;51.756;-2.556;2022-10-16T08:14:07;4.47;;;1.02;;
45476;SDS011;31958;51.756;-2.556;2022-10-16T08:16:32;2.72;;;0.90;;
45476;SDS011;31958;51.756;-2.556;2022-10-16T08:18:58;5.72;;;1.05;;
45476;SDS011;31958;51.756;-2.556;2022-10-16T08:21:23;3.97;;;0.80;;
45476;SDS011;31958;51.756;-2.556;2022-10-16T08:23:50;1.83;;;0.73;;
45476;SDS011;31958;51.756;-2.556;2022-10-16T08:26:16;4.18;;;0.90;;
45476;SDS011;31958;51.756;-2.556;2022-10-16T08:28:41;2.67;;;0.80;;
45476;SDS011;31958;51.756;-2.556;2022-10-16T08:31:11;5.18;;;0.95;;
45476;SDS011;31958;51.756;-2.556;2022-10-16T08:33:39;1.98;;;0.90;;
45476;SDS011;31958;51.756;-2.556;2022-10-16T08:36:06;4.25;;;0.90;;
45476;SDS011;31958;51.756;-2.556;2022-10-16T08:38:32;2.30;;;0.85;;
45476;SDS011;31958;51.756;-2.556;2022-10-16T08:41:42;2.10;;;0.90;;
45476;SDS011;31958;51.756;-2.556;2022-10-16T08:49:12;2.15;;;0.70;;
45476;SDS011;31958;51.756;-2.556;2022-10-16T08:51:40;5.68;;;1.27;;
45476;SDS011;31958;51.756;-2.556;2022-10-16T08:54:53;4.38;;;0.88;;
45476;SDS011;31958;51.756;-2.556;2022-10-16T08:57:12;2.25;;;0.70;;
45476;SDS011;31958;51.756;-2.556;2022-10-16T08:59:39;2.13;;;0.80;;
45476;SDS011;31958;51.756;-2.556;2022-10-16T09:02:15;2.63;;;0.80;;
45476;SDS011;31958;51.756;-2.556;2022-10-16T09:10:57;3.30;;;0.90;;
45476;SDS011;31958;51.756;-2.556;2022-10-16T09:18:40;4.85;;;0.75;;
45476;SDS011;31958;51.756;-2.556;2022-10-16T09:23:34;5.78;;;1.10;;
45476;SDS011;31958;51.756;-2.556;2022-10-16T09:26:00;8.05;;;0.77;;
45476;SDS011;31958;51.756;-2.556;2022-10-16T09:28:26;5.03;;;0.90;;
45476;SDS011;31958;51.756;-2.556;2022-10-16T09:30:52;5.70;;;0.73;;
45476;SDS011;31958;51.756;-2.556;2022-10-16T09:33:19;7.13;;;0.82;;
45476;SDS011;31958;51.756;-2.556;2022-10-16T09:35:50;8.70;;;1.95;;
45476;SDS011;31958;51.756;-2.556;2022-10-16T09:40:53;4.90;;;1.10;;
45476;SDS011;31958;51.756;-2.556;2022-10-16T09:43:33;4.05;;;1.00;;
45476;SDS011;31958;51.756;-2.556;2022-10-16T09:46:05;6.13;;;1.00;;
45476;SDS011;31958;51.756;-2.556;2022-10-16T09:48:44;4.82;;;1.05;;
45476;SDS011;31958;51.756;-2.556;2022-10-16T09:51:18;7.97;;;1.35;;
45476;SDS011;31958;51.756;-2.556;2022-10-16T09:53:46;2.28;;;0.90;;
45476;SDS011;31958;51.756;-2.556;2022-10-16T09:56:20;2.53;;;0.90;;
45476;SDS011;31958;51.756;-2.556;2022-10-16T09:58:51;5.05;;;0.90;;
45476;SDS011;31958;51.756;-2.556;2022-10-16T10:01:17;1.90;;;0.70;;
45476;SDS011;31958;51.756;-2.556;2022-10-16T10:03:43;6.55;;;1.00;;
45476;SDS011;31958;51.756;-2.556;2022-10-16T10:06:23;2.45;;;0.90;;
45476;SDS011;31958;51.756;-2.556;2022-10-16T10:08:56;5.75;;;1.38;;
45476;SDS011;31958;51.756;-2.556;2022-10-16T10:11:36;3.58;;;0.90;;
45476;SDS011;31958;51.756;-2.556;2022-10-16T10:14:06;2.60;;;1.00;;
45476;SDS011;31958;51.756;-2.556;2022-10-16T10:16:46;2.53;;;0.70;;
45476;SDS011;31958;51.756;-2.556;2022-10-16T10:19:21;1.92;;;0.80;;
45476;SDS011;31958;51.756;-2.556;2022-10-16T10:21:48;4.55;;;1.13;;
45476;SDS011;31958;51.756;-2.556;2022-10-16T10:24:15;3.35;;;0.90;;
45476;SDS011;31958;51.756;-2.556;2022-10-16T10:26:45;5.65;;;1.13;;
45476;SDS011;31958;51.756;-2.556;2022-10-16T10:29:19;6.63;;;1.00;;
45476;SDS011;31958;51.756;-2.556;2022-10-16T10:34:51;3.28;;;1.20;;
45476;SDS011;31958;51.756;-2.556;2022-10-16T10:42:50;4.03;;;0.90;;
45476;SDS011;31958;51.756;-2.556;2022-10-16T10:50:25;3.45;;;1.00;;
45476;SDS011;31958;51.756;-2.556;2022-10-16T10:56:08;3.78;;;1.02;;
45476;SDS011;31958;51.756;-2.556;2022-10-16T11:06:59;2.35;;;0.70;;
45476;SDS011;31958;51.756;-2.556;2022-10-16T11:09:31;3.40;;;1.00;;
45476;SDS011;31958;51.756;-2.556;2022-10-16T11:12:01;2.17;;;0.83;;
45476;SDS011;31958;51.756;-2.556;2022-10-16T11:14:56;5.30;;;1.13;;
45476;SDS011;31958;51.756;-2.556;2022-10-16T11:17:34;3.13;;;0.82;;
45476;SDS011;31958;51.756;-2.556;2022-10-16T11:25:16;2.38;;;0.85;;
45476;SDS011;31958;51.756;-2.556;2022-10-16T11:27:47;7.22;;;1.00;;
45476;SDS011;31958;51.756;-2.556;2022-10-16T11:30:18;5.43;;;1.10;;
45476;SDS011;31958;51.756;-2.556;2022-10-16T11:37:58;4.25;;;1.00;;
45476;SDS011;31958;51.756;-2.556;2022-10-16T11:40:25;4.05;;;1.02;;
45476;SDS011;31958;51.756;-2.556;2022-10-16T11:42:56;2.97;;;0.93;;
45476;SDS011;31958;51.756;-2.556;2022-10-16T11:48:32;2.25;;;0.80;;
45476;SDS011;31958;51.756;-2.556;2022-10-16T11:56:39;3.50;;;1.08;;
45476;SDS011;31958;51.756;-2.556;2022-10-16T12:01:57;2.03;;;0.90;;
45476;SDS011;31958;51.756;-2.556;2022-10-16T12:04:46;2.97;;;0.90;;
45476;SDS011;31958;51.756;-2.556;2022-10-16T12:07:17;2.97;;;0.73;;
45476;SDS011;31958;51.756;-2.556;2022-10-16T12:09:45;1.52;;;0.75;;
45476;SDS011;31958;51.756;-2.556;2022-10-16T12:12:27;2.47;;;0.80;;
45476;SDS011;31958;51.756;-2.556;2022-10-16T12:15:25;2.78;;;0.75;;
45476;SDS011;31958;51.756;-2.556;2022-10-16T12:17:50;1.67;;;0.70;;
45476;SDS011;31958;51.756;-2.556;2022-10-16T12:23:03;3.90;;;0.93;;
45476;SDS011;31958;51.756;-2.556;2022-10-16T12:25:34;1.92;;;0.80;;
45476;SDS011;31958;51.756;-2.556;2022-10-16T12:30:30;2.33;;;0.75;;
45476;SDS011;31958;51.756;-2.556;2022-10-16T12:32:58;2.88;;;0.82;;
45476;SDS011;31958;51.756;-2.556;2022-10-16T12:35:31;3.58;;;0.90;;
45476;SDS011;31958;51.756;-2.556;2022-10-16T12:38:05;2.05;;;0.90;;
45476;SDS011;31958;51.756;-2.556;2022-10-16T12:40:33;3.67;;;1.20;;
45476;SDS011;31958;51.756;-2.556;2022-10-16T12:43:10;4.97;;;2.25;;
45476;SDS011;31958;51.756;-2.556;2022-10-16T12:45:36;2.58;;;0.73;;
45476;SDS011;31958;51.756;-2.556;2022-10-16T12:48:02;2.65;;;0.93;;
45476;SDS011;31958;51.756;-2.556;2022-10-16T12:50:42;1.75;;;0.77;;
45476;SDS011;31958;51.756;-2.556;2022-10-16T12:53:24;2.15;;;0.88;;
45476;SDS011;31958;51.756;-2.556;2022-10-16T12:58:55;1.95;;;0.70;;
45476;SDS011;31958;51.756;-2.556;2022-10-16T13:06:51;3.58;;;1.00;;
45476;SDS011;31958;51.756;-2.556;2022-10-16T13:09:32;2.90;;;1.00;;
45476;SDS011;31958;51.756;-2.556;2022-10-16T13:28:01;3.22;;;1.13;;
45476;SDS011;31958;51.756;-2.556;2022-10-16T13:30:29;12.52;;;1.50;;
45476;SDS011;31958;51.756;-2.556;2022-10-16T13:33:00;6.70;;;0.90;;
45476;SDS011;31958;51.756;-2.556;2022-10-16T13:35:31;3.17;;;0.90;;
45476;SDS011;31958;51.756;-2.556;2022-10-16T13:40:52;12.57;;;1.13;;
45476;SDS011;31958;51.756;-2.556;2022-10-16T13:43:19;8.82;;;1.25;;
45476;SDS011;31958;51.756;-2.556;2022-10-16T13:45:54;9.00;;;1.40;;
45476;SDS011;31958;51.756;-2.556;2022-10-16T13:48:24;4.75;;;0.98;;
45476;SDS011;31958;51.756;-2.556;2022-10-16T13:51:03;5.18;;;1.00;;
45476;SDS011;31958;51.756;-2.556;2022-10-16T13:53:36;6.00;;;0.90;;
45476;SDS011;31958;51.756;-2.556;2022-10-16T13:56:03;4.85;;;1.20;;
45476;SDS011;31958;51.756;-2.556;2022-10-16T13:58:29;11.02;;;1.45;;
45476;SDS011;31958;51.756;-2.556;2022-10-16T14:00:56;6.63;;;1.10;;
45476;SDS011;31958;51.756;-2.556;2022-10-16T14:03:41;2.72;;;0.82;;
45476;SDS011;31958;51.756;-2.556;2022-10-16T14:06:11;5.72;;;1.10;;
45476;SDS011;31958;51.756;-2.556;2022-10-16T14:08:41;13.68;;;3.90;;
45476;SDS011;31958;51.756;-2.556;2022-10-16T14:11:07;9.05;;;3.40;;
45476;SDS011;31958;51.756;-2.556;2022-10-16T14:13:37;10.75;;;2.80;;
45476;SDS011;31958;51.756;-2.556;2022-10-16T14:16:09;13.32;;;2.35;;
45476;SDS011;31958;51.756;-2.556;2022-10-16T14:18:35;8.38;;;2.30;;
45476;SDS011;31958;51.756;-2.556;2022-10-16T14:21:03;9.63;;;1.85;;
45476;SDS011;31958;51.756;-2.556;2022-10-16T14:23:31;13.60;;;1.70;;
45476;SDS011;31958;51.756;-2.556;2022-10-16T14:28:38;5.80;;;1.67;;
45476;SDS011;31958;51.756;-2.556;2022-10-16T14:37:24;16.20;;;2.03;;
45476;SDS011;31958;51.756;-2.556;2022-10-16T14:42:17;15.55;;;2.13;;
45476;SDS011;31958;51.756;-2.556;2022-10-16T14:44:44;25.05;;;3.35;;
45476;SDS011;31958;51.756;-2.556;2022-10-16T14:47:15;11.30;;;1.70;;
45476;SDS011;31958;51.756;-2.556;2022-10-16T14:49:47;9.50;;;1.60;;
45476;SDS011;31958;51.756;-2.556;2022-10-16T14:52:12;9.23;;;1.65;;
45476;SDS011;31958;51.756;-2.556;2022-10-16T14:54:38;11.80;;;1.70;;
45476;SDS011;31958;51.756;-2.556;2022-10-16T14:57:05;5.50;;;1.65;;
45476;SDS011;31958;51.756;-2.556;2022-10-16T14:59:33;5.90;;;1.48;;
45476;SDS011;31958;51.756;-2.556;2022-10-16T15:02:01;5.57;;;1.30;;
45476;SDS011;31958;51.756;-2.556;2022-10-16T15:04:41;6.80;;;1.60;;
45476;SDS011;31958;51.756;-2.556;2022-10-16T15:07:07;11.27;;;2.05;;
45476;SDS011;31958;51.756;-2.556;2022-10-16T15:09:32;6.60;;;1.23;;
45476;SDS011;31958;51.756;-2.556;2022-10-16T15:11:58;14.98;;;2.05;;
45476;SDS011;31958;51.756;-2.556;2022-10-16T15:14:23;13.85;;;1.77;;
45476;SDS011;31958;51.756;-2.556;2022-10-16T15:16:48;9.88;;;1.40;;
45476;SDS011;31958;51.756;-2.556;2022-10-16T15:19:14;15.45;;;2.22;;
45476;SDS011;31958;51.756;-2.556;2022-10-16T15:21:39;12.02;;;1.95;;
45476;SDS011;31958;51.756;-2.556;2022-10-16T15:24:07;8.80;;;1.75;;
45476;SDS011;31958;51.756;-2.556;2022-10-16T15:26:34;5.70;;;1.40;;
45476;SDS011;31958;51.756;-2.556;2022-10-16T15:28:59;6.65;;;1.80;;
45476;SDS011;31958;51.756;-2.556;2022-10-16T15:31:24;6.78;;;1.80;;
45476;SDS011;31958;51.756;-2.556;2022-10-16T15:33:51;4.93;;;1.35;;
45476;SDS011;31958;51.756;-2.556;2022-10-16T15:36:26;9.55;;;1.60;;
45476;SDS011;31958;51.756;-2.556;2022-10-16T15:38:58;6.20;;;1.30;;
45476;SDS011;31958;51.756;-2.556;2022-10-16T15:41:24;6.85;;;1.38;;
45476;SDS011;31958;51.756;-2.556;2022-10-16T15:43:49;8.90;;;2.10;;
45476;SDS011;31958;51.756;-2.556;2022-10-16T15:46:17;9.25;;;1.65;;
45476;SDS011;31958;51.756;-2.556;2022-10-16T15:48:44;6.20;;;1.45;;
45476;SDS011;31958;51.756;-2.556;2022-10-16T15:51:09;5.65;;;1.77;;
45476;SDS011;31958;51.756;-2.556;2022-10-16T15:53:35;7.22;;;1.30;;
45476;SDS011;31958;51.756;-2.556;2022-10-16T15:56:02;10.52;;;1.63;;
45476;SDS011;31958;51.756;-2.556;2022-10-16T15:58:30;5.65;;;1.77;;
45476;SDS011;31958;51.756;-2.556;2022-10-16T16:00:56;6.65;;;1.65;;
45476;SDS011;31958;51.756;-2.556;2022-10-16T16:03:22;5.60;;;1.83;;
45476;SDS011;31958;51.756;-2.556;2022-10-16T16:05:48;5.30;;;1.27;;
45476;SDS011;31958;51.756;-2.556;2022-10-16T16:08:13;29.25;;;3.13;;
45476;SDS011;31958;51.756;-2.556;2022-10-16T16:10:39;16.42;;;1.63;;
45476;SDS011;31958;51.756;-2.556;2022-10-16T16:13:04;11.80;;;1.55;;
45476;SDS011;31958;51.756;-2.556;2022-10-16T16:15:29;5.20;;;1.33;;
45476;SDS011;31958;51.756;-2.556;2022-10-16T16:17:55;22.15;;;1.85;;
45476;SDS011;31958;51.756;-2.556;2022-10-16T16:20:20;25.63;;;2.50;;
45476;SDS011;31958;51.756;-2.556;2022-10-16T16:22:46;10.63;;;1.50;;
45476;SDS011;31958;51.756;-2.556;2022-10-16T16:25:11;10.85;;;1.48;;
45476;SDS011;31958;51.756;-2.556;2022-10-16T16:27:37;5.88;;;1.23;;
45476;SDS011;31958;51.756;-2.556;2022-10-16T16:30:03;9.38;;;1.35;;
45476;SDS011;31958;51.756;-2.556;2022-10-16T16:32:32;7.40;;;1.75;;
45476;SDS011;31958;51.756;-2.556;2022-10-16T16:34:58;8.35;;;1.88;;
45476;SDS011;31958;51.756;-2.556;2022-10-16T16:37:23;9.73;;;1.42;;
45476;SDS011;31958;51.756;-2.556;2022-10-16T16:39:49;11.60;;;1.35;;
45476;SDS011;31958;51.756;-2.556;2022-10-16T16:42:14;11.00;;;1.90;;
45476;SDS011;31958;51.756;-2.556;2022-10-16T16:44:40;10.27;;;1.60;;
45476;SDS011;31958;51.756;-2.556;2022-10-16T16:47:05;13.20;;;1.33;;
45476;SDS011;31958;51.756;-2.556;2022-10-16T16:49:31;7.32;;;1.50;;